sensor_id;sensor_type;location;lat;lon;timestamp;P1;durP1;ratioP1;P2;durP2;ratioP2
13331;SDS011;6735;51.456;12.626;2022-07-01T00:02:00;18.80;;;16.87;;
13331;SDS011;6735;51.456;12.626;2022-07-01T00:04:26;20.03;;;18.23;;
13331;SDS011;6735;51.456;12.626;2022-07-01T00:06:52;18.90;;;17.20;;
13331;SDS011;6735;51.456;12.626;2022-07-01T00:09:18;19.53;;;17.67;;
13331;SDS011;6735;51.456;12.626;2022-07-01T00:11:44;19.63;;;17.80;;
13331;SDS011;6735;51.456;12.626;2022-07-01T00:14:09;19.17;;;17.63;;
13331;SDS011;6735;51.456;12.626;2022-07-01T00:16:35;20.30;;;18.23;;
13331;SDS011;6735;51.456;12.626;2022-07-01T00:19:01;19.20;;;17.43;;
13331;SDS011;6735;51.456;12.626;2022-07-01T00:21:27;20.83;;;18.37;;
13331;SDS011;6735;51.456;12.626;2022-07-01T00:23:52;20.80;;;19.13;;
13331;SDS011;6735;51.456;12.626;2022-07-01T00:26:18;19.83;;;17.87;;
13331;SDS011;6735;51.456;12.626;2022-07-01T00:28:43;18.93;;;17.23;;
13331;SDS011;6735;51.456;12.626;2022-07-01T00:31:09;19.83;;;18.13;;
13331;SDS011;6735;51.456;12.626;2022-07-01T00:33:34;21.37;;;19.03;;
13331;SDS011;6735;51.456;12.626;2022-07-01T00:36:00;18.53;;;16.90;;
13331;SDS011;6735;51.456;12.626;2022-07-01T00:38:25;20.23;;;18.47;;
13331;SDS011;6735;51.456;12.626;2022-07-01T00:40:51;20.40;;;18.57;;
13331;SDS011;6735;51.456;12.626;2022-07-01T00:43:18;20.20;;;18.17;;
13331;SDS011;6735;51.456;12.626;2022-07-01T00:45:47;18.80;;;17.20;;
13331;SDS011;6735;51.456;12.626;2022-07-01T00:48:13;18.90;;;17.30;;
13331;SDS011;6735;51.456;12.626;2022-07-01T00:50:40;19.60;;;17.80;;
13331;SDS011;6735;51.456;12.626;2022-07-01T00:53:05;19.53;;;17.50;;
13331;SDS011;6735;51.456;12.626;2022-07-01T00:55:31;19.50;;;17.57;;
13331;SDS011;6735;51.456;12.626;2022-07-01T00:57:57;19.20;;;17.50;;
13331;SDS011;6735;51.456;12.626;2022-07-01T01:00:23;18.83;;;17.20;;
13331;SDS011;6735;51.456;12.626;2022-07-01T01:02:49;20.13;;;18.43;;
13331;SDS011;6735;51.456;12.626;2022-07-01T01:05:15;18.90;;;17.10;;
13331;SDS011;6735;51.456;12.626;2022-07-01T01:07:42;19.43;;;17.57;;
13331;SDS011;6735;51.456;12.626;2022-07-01T01:10:08;19.23;;;17.43;;
13331;SDS011;6735;51.456;12.626;2022-07-01T01:12:34;18.73;;;17.13;;
13331;SDS011;6735;51.456;12.626;2022-07-01T01:15:01;18.77;;;16.97;;
13331;SDS011;6735;51.456;12.626;2022-07-01T01:17:27;19.20;;;17.60;;
13331;SDS011;6735;51.456;12.626;2022-07-01T01:19:53;19.43;;;17.50;;
13331;SDS011;6735;51.456;12.626;2022-07-01T01:22:19;18.93;;;17.03;;
13331;SDS011;6735;51.456;12.626;2022-07-01T01:24:45;19.37;;;17.67;;
13331;SDS011;6735;51.456;12.626;2022-07-01T01:27:14;19.47;;;17.60;;
13331;SDS011;6735;51.456;12.626;2022-07-01T01:29:41;20.53;;;18.60;;
13331;SDS011;6735;51.456;12.626;2022-07-01T01:32:07;21.77;;;19.63;;
13331;SDS011;6735;51.456;12.626;2022-07-01T01:34:33;20.10;;;18.17;;
13331;SDS011;6735;51.456;12.626;2022-07-01T01:37:01;19.50;;;17.77;;
13331;SDS011;6735;51.456;12.626;2022-07-01T01:39:28;19.90;;;18.10;;
13331;SDS011;6735;51.456;12.626;2022-07-01T01:41:54;18.90;;;17.20;;
13331;SDS011;6735;51.456;12.626;2022-07-01T01:44:19;20.03;;;18.23;;
13331;SDS011;6735;51.456;12.626;2022-07-01T01:46:45;20.50;;;18.63;;
13331;SDS011;6735;51.456;12.626;2022-07-01T01:49:10;19.27;;;17.57;;
13331;SDS011;6735;51.456;12.626;2022-07-01T01:51:36;18.93;;;17.07;;
13331;SDS011;6735;51.456;12.626;2022-07-01T01:54:01;19.23;;;17.43;;
13331;SDS011;6735;51.456;12.626;2022-07-01T01:56:27;19.47;;;17.43;;
13331;SDS011;6735;51.456;12.626;2022-07-01T01:58:54;19.10;;;17.40;;
13331;SDS011;6735;51.456;12.626;2022-07-01T02:01:19;18.03;;;16.50;;
13331;SDS011;6735;51.456;12.626;2022-07-01T02:03:46;18.77;;;17.07;;
13331;SDS011;6735;51.456;12.626;2022-07-01T02:06:13;20.00;;;17.80;;
13331;SDS011;6735;51.456;12.626;2022-07-01T02:08:39;19.07;;;17.47;;
13331;SDS011;6735;51.456;12.626;2022-07-01T02:11:05;19.20;;;17.30;;
13331;SDS011;6735;51.456;12.626;2022-07-01T02:13:32;19.20;;;17.50;;
13331;SDS011;6735;51.456;12.626;2022-07-01T02:15:59;18.47;;;16.77;;
13331;SDS011;6735;51.456;12.626;2022-07-01T02:18:24;19.73;;;18.03;;
13331;SDS011;6735;51.456;12.626;2022-07-01T02:20:50;19.27;;;17.47;;
13331;SDS011;6735;51.456;12.626;2022-07-01T02:23:16;18.87;;;17.17;;
13331;SDS011;6735;51.456;12.626;2022-07-01T02:25:42;19.40;;;17.57;;
13331;SDS011;6735;51.456;12.626;2022-07-01T02:28:08;19.30;;;17.27;;
13331;SDS011;6735;51.456;12.626;2022-07-01T02:30:34;19.43;;;17.63;;
13331;SDS011;6735;51.456;12.626;2022-07-01T02:33:03;20.30;;;18.30;;
13331;SDS011;6735;51.456;12.626;2022-07-01T02:35:30;20.10;;;18.30;;
13331;SDS011;6735;51.456;12.626;2022-07-01T02:37:59;19.57;;;17.80;;
13331;SDS011;6735;51.456;12.626;2022-07-01T02:40:25;20.57;;;18.47;;
13331;SDS011;6735;51.456;12.626;2022-07-01T02:42:51;19.00;;;17.33;;
13331;SDS011;6735;51.456;12.626;2022-07-01T02:45:16;19.77;;;18.03;;
13331;SDS011;6735;51.456;12.626;2022-07-01T02:47:42;19.77;;;17.93;;
13331;SDS011;6735;51.456;12.626;2022-07-01T02:50:08;19.10;;;17.13;;
13331;SDS011;6735;51.456;12.626;2022-07-01T02:52:36;20.13;;;18.30;;
13331;SDS011;6735;51.456;12.626;2022-07-01T02:55:03;19.57;;;17.67;;
13331;SDS011;6735;51.456;12.626;2022-07-01T02:57:30;20.37;;;18.43;;
13331;SDS011;6735;51.456;12.626;2022-07-01T02:59:55;21.63;;;19.63;;
13331;SDS011;6735;51.456;12.626;2022-07-01T03:02:21;20.93;;;19.03;;
13331;SDS011;6735;51.456;12.626;2022-07-01T03:04:47;21.40;;;19.40;;
13331;SDS011;6735;51.456;12.626;2022-07-01T03:07:15;21.47;;;19.37;;
13331;SDS011;6735;51.456;12.626;2022-07-01T03:09:41;20.07;;;18.27;;
13331;SDS011;6735;51.456;12.626;2022-07-01T03:12:10;21.27;;;19.27;;
13331;SDS011;6735;51.456;12.626;2022-07-01T03:14:57;22.77;;;20.67;;
13331;SDS011;6735;51.456;12.626;2022-07-01T03:17:24;22.83;;;20.63;;
13331;SDS011;6735;51.456;12.626;2022-07-01T03:19:50;22.67;;;20.60;;
13331;SDS011;6735;51.456;12.626;2022-07-01T03:22:17;21.97;;;19.97;;
13331;SDS011;6735;51.456;12.626;2022-07-01T03:24:43;22.53;;;20.17;;
13331;SDS011;6735;51.456;12.626;2022-07-01T03:27:08;21.43;;;19.43;;
13331;SDS011;6735;51.456;12.626;2022-07-01T03:29:34;20.53;;;18.60;;
13331;SDS011;6735;51.456;12.626;2022-07-01T03:32:00;22.23;;;19.87;;
13331;SDS011;6735;51.456;12.626;2022-07-01T03:34:25;20.67;;;18.97;;
13331;SDS011;6735;51.456;12.626;2022-07-01T03:36:51;22.00;;;20.00;;
13331;SDS011;6735;51.456;12.626;2022-07-01T03:39:16;22.17;;;19.90;;
13331;SDS011;6735;51.456;12.626;2022-07-01T03:41:42;21.97;;;19.83;;
13331;SDS011;6735;51.456;12.626;2022-07-01T03:44:07;20.77;;;18.60;;
13331;SDS011;6735;51.456;12.626;2022-07-01T03:46:33;20.50;;;18.53;;
13331;SDS011;6735;51.456;12.626;2022-07-01T03:49:00;19.63;;;17.63;;
13331;SDS011;6735;51.456;12.626;2022-07-01T03:51:26;20.00;;;18.07;;
13331;SDS011;6735;51.456;12.626;2022-07-01T03:53:51;17.93;;;16.23;;
13331;SDS011;6735;51.456;12.626;2022-07-01T03:56:35;18.17;;;16.30;;
13331;SDS011;6735;51.456;12.626;2022-07-01T03:59:01;17.47;;;14.67;;
13331;SDS011;6735;51.456;12.626;2022-07-01T04:01:26;15.53;;;14.00;;
13331;SDS011;6735;51.456;12.626;2022-07-01T04:03:52;14.87;;;13.37;;
13331;SDS011;6735;51.456;12.626;2022-07-01T04:06:18;14.47;;;12.97;;
13331;SDS011;6735;51.456;12.626;2022-07-01T04:08:43;15.90;;;13.23;;
13331;SDS011;6735;51.456;12.626;2022-07-01T04:11:10;16.70;;;15.10;;
13331;SDS011;6735;51.456;12.626;2022-07-01T04:13:36;16.87;;;15.20;;
13331;SDS011;6735;51.456;12.626;2022-07-01T04:16:04;17.07;;;15.37;;
13331;SDS011;6735;51.456;12.626;2022-07-01T04:18:30;17.87;;;16.10;;
13331;SDS011;6735;51.456;12.626;2022-07-01T04:20:57;17.37;;;15.77;;
13331;SDS011;6735;51.456;12.626;2022-07-01T04:23:41;18.37;;;16.53;;
13331;SDS011;6735;51.456;12.626;2022-07-01T04:26:07;19.43;;;17.60;;
13331;SDS011;6735;51.456;12.626;2022-07-01T04:28:32;20.00;;;17.73;;
13331;SDS011;6735;51.456;12.626;2022-07-01T04:30:58;19.73;;;17.70;;
13331;SDS011;6735;51.456;12.626;2022-07-01T04:33:24;20.60;;;18.53;;
13331;SDS011;6735;51.456;12.626;2022-07-01T04:35:50;20.67;;;18.67;;
13331;SDS011;6735;51.456;12.626;2022-07-01T04:38:15;21.20;;;19.33;;
13331;SDS011;6735;51.456;12.626;2022-07-01T04:40:41;23.23;;;20.90;;
13331;SDS011;6735;51.456;12.626;2022-07-01T04:43:26;21.73;;;19.77;;
13331;SDS011;6735;51.456;12.626;2022-07-01T04:45:52;23.37;;;20.97;;
13331;SDS011;6735;51.456;12.626;2022-07-01T04:48:17;23.53;;;21.00;;
13331;SDS011;6735;51.456;12.626;2022-07-01T04:50:42;23.70;;;21.17;;
13331;SDS011;6735;51.456;12.626;2022-07-01T04:53:09;23.97;;;21.77;;
13331;SDS011;6735;51.456;12.626;2022-07-01T04:55:34;23.60;;;21.40;;
13331;SDS011;6735;51.456;12.626;2022-07-01T04:58:00;22.37;;;20.27;;
13331;SDS011;6735;51.456;12.626;2022-07-01T05:00:25;20.27;;;18.47;;
13331;SDS011;6735;51.456;12.626;2022-07-01T05:02:51;18.97;;;17.23;;
13331;SDS011;6735;51.456;12.626;2022-07-01T05:05:16;16.60;;;15.10;;
13331;SDS011;6735;51.456;12.626;2022-07-01T05:07:42;15.40;;;13.90;;
13331;SDS011;6735;51.456;12.626;2022-07-01T05:10:07;15.40;;;14.00;;
13331;SDS011;6735;51.456;12.626;2022-07-01T05:12:33;13.27;;;11.97;;
13331;SDS011;6735;51.456;12.626;2022-07-01T05:14:59;12.50;;;11.50;;
13331;SDS011;6735;51.456;12.626;2022-07-01T05:17:24;12.43;;;11.33;;
13331;SDS011;6735;51.456;12.626;2022-07-01T05:20:10;14.20;;;12.27;;
13331;SDS011;6735;51.456;12.626;2022-07-01T05:22:54;13.03;;;11.60;;
13331;SDS011;6735;51.456;12.626;2022-07-01T05:25:19;12.40;;;11.20;;
13331;SDS011;6735;51.456;12.626;2022-07-01T05:27:45;11.47;;;10.57;;
13331;SDS011;6735;51.456;12.626;2022-07-01T05:30:10;12.63;;;11.33;;
13331;SDS011;6735;51.456;12.626;2022-07-01T05:32:36;11.13;;;10.10;;
13331;SDS011;6735;51.456;12.626;2022-07-01T05:35:02;10.87;;;9.00;;
13331;SDS011;6735;51.456;12.626;2022-07-01T05:37:27;9.90;;;9.00;;
13331;SDS011;6735;51.456;12.626;2022-07-01T05:39:53;8.67;;;7.80;;
13331;SDS011;6735;51.456;12.626;2022-07-01T05:42:18;8.60;;;6.83;;
13331;SDS011;6735;51.456;12.626;2022-07-01T05:44:44;8.77;;;6.57;;
13331;SDS011;6735;51.456;12.626;2022-07-01T05:47:09;7.03;;;6.43;;
13331;SDS011;6735;51.456;12.626;2022-07-01T05:49:35;7.20;;;6.50;;
13331;SDS011;6735;51.456;12.626;2022-07-01T05:52:00;6.67;;;6.07;;
13331;SDS011;6735;51.456;12.626;2022-07-01T05:54:26;6.77;;;6.07;;
13331;SDS011;6735;51.456;12.626;2022-07-01T05:56:51;6.60;;;6.03;;
13331;SDS011;6735;51.456;12.626;2022-07-01T05:59:17;6.53;;;5.90;;
13331;SDS011;6735;51.456;12.626;2022-07-01T06:01:42;6.73;;;6.13;;
13331;SDS011;6735;51.456;12.626;2022-07-01T06:04:08;7.17;;;6.57;;
13331;SDS011;6735;51.456;12.626;2022-07-01T06:06:34;7.10;;;6.40;;
13331;SDS011;6735;51.456;12.626;2022-07-01T06:08:59;7.33;;;6.73;;
13331;SDS011;6735;51.456;12.626;2022-07-01T06:11:25;7.20;;;6.23;;
13331;SDS011;6735;51.456;12.626;2022-07-01T06:13:50;7.30;;;6.20;;
13331;SDS011;6735;51.456;12.626;2022-07-01T06:16:16;6.83;;;6.13;;
13331;SDS011;6735;51.456;12.626;2022-07-01T06:18:41;6.30;;;5.17;;
13331;SDS011;6735;51.456;12.626;2022-07-01T06:21:07;5.53;;;5.10;;
13331;SDS011;6735;51.456;12.626;2022-07-01T06:23:32;5.27;;;4.83;;
13331;SDS011;6735;51.456;12.626;2022-07-01T06:25:58;4.20;;;3.90;;
13331;SDS011;6735;51.456;12.626;2022-07-01T06:28:23;6.93;;;4.00;;
13331;SDS011;6735;51.456;12.626;2022-07-01T06:30:54;6.03;;;4.70;;
13331;SDS011;6735;51.456;12.626;2022-07-01T06:33:20;5.20;;;4.80;;
13331;SDS011;6735;51.456;12.626;2022-07-01T06:35:46;5.50;;;5.00;;
13331;SDS011;6735;51.456;12.626;2022-07-01T06:38:11;6.13;;;5.30;;
13331;SDS011;6735;51.456;12.626;2022-07-01T06:40:37;4.97;;;4.63;;
13331;SDS011;6735;51.456;12.626;2022-07-01T06:43:02;5.37;;;4.97;;
13331;SDS011;6735;51.456;12.626;2022-07-01T06:45:28;5.43;;;5.00;;
13331;SDS011;6735;51.456;12.626;2022-07-01T06:47:54;6.07;;;5.57;;
13331;SDS011;6735;51.456;12.626;2022-07-01T06:50:19;6.07;;;5.57;;
13331;SDS011;6735;51.456;12.626;2022-07-01T06:52:45;6.40;;;5.90;;
13331;SDS011;6735;51.456;12.626;2022-07-01T06:55:10;7.33;;;6.23;;
13331;SDS011;6735;51.456;12.626;2022-07-01T06:57:36;7.17;;;6.47;;
13331;SDS011;6735;51.456;12.626;2022-07-01T07:00:02;7.00;;;6.47;;
13331;SDS011;6735;51.456;12.626;2022-07-01T07:02:28;6.87;;;6.37;;
13331;SDS011;6735;51.456;12.626;2022-07-01T07:04:53;7.47;;;6.70;;
13331;SDS011;6735;51.456;12.626;2022-07-01T07:07:23;8.03;;;7.40;;
13331;SDS011;6735;51.456;12.626;2022-07-01T07:09:49;9.23;;;8.43;;
13331;SDS011;6735;51.456;12.626;2022-07-01T07:12:14;10.20;;;9.30;;
13331;SDS011;6735;51.456;12.626;2022-07-01T07:14:40;11.80;;;10.90;;
13331;SDS011;6735;51.456;12.626;2022-07-01T07:17:05;13.37;;;12.03;;
13331;SDS011;6735;51.456;12.626;2022-07-01T07:19:30;13.77;;;12.63;;
13331;SDS011;6735;51.456;12.626;2022-07-01T07:21:56;13.63;;;12.53;;
13331;SDS011;6735;51.456;12.626;2022-07-01T07:24:22;11.53;;;10.63;;
13331;SDS011;6735;51.456;12.626;2022-07-01T07:26:47;11.43;;;10.27;;
13331;SDS011;6735;51.456;12.626;2022-07-01T07:29:13;11.50;;;10.47;;
13331;SDS011;6735;51.456;12.626;2022-07-01T07:31:39;12.50;;;11.50;;
13331;SDS011;6735;51.456;12.626;2022-07-01T07:34:04;11.27;;;10.37;;
13331;SDS011;6735;51.456;12.626;2022-07-01T07:36:30;11.17;;;10.20;;
13331;SDS011;6735;51.456;12.626;2022-07-01T07:38:56;11.07;;;10.00;;
13331;SDS011;6735;51.456;12.626;2022-07-01T07:41:22;11.33;;;10.43;;
13331;SDS011;6735;51.456;12.626;2022-07-01T07:43:48;13.67;;;12.37;;
13331;SDS011;6735;51.456;12.626;2022-07-01T07:46:13;13.87;;;12.60;;
13331;SDS011;6735;51.456;12.626;2022-07-01T07:48:40;14.03;;;12.83;;
13331;SDS011;6735;51.456;12.626;2022-07-01T07:51:08;15.10;;;13.90;;
13331;SDS011;6735;51.456;12.626;2022-07-01T07:53:34;13.73;;;12.43;;
13331;SDS011;6735;51.456;12.626;2022-07-01T07:55:59;14.33;;;13.17;;
13331;SDS011;6735;51.456;12.626;2022-07-01T07:58:25;13.40;;;12.33;;
13331;SDS011;6735;51.456;12.626;2022-07-01T08:00:51;11.30;;;10.47;;
13331;SDS011;6735;51.456;12.626;2022-07-01T08:03:16;10.57;;;9.77;;
13331;SDS011;6735;51.456;12.626;2022-07-01T08:05:42;7.77;;;7.27;;
13331;SDS011;6735;51.456;12.626;2022-07-01T08:08:07;6.20;;;5.70;;
13331;SDS011;6735;51.456;12.626;2022-07-01T08:10:33;5.50;;;4.13;;
13331;SDS011;6735;51.456;12.626;2022-07-01T08:12:59;3.23;;;2.93;;
13331;SDS011;6735;51.456;12.626;2022-07-01T08:15:29;2.60;;;2.40;;
13331;SDS011;6735;51.456;12.626;2022-07-01T08:17:55;2.50;;;2.20;;
13331;SDS011;6735;51.456;12.626;2022-07-01T08:20:20;2.50;;;2.20;;
13331;SDS011;6735;51.456;12.626;2022-07-01T08:22:46;3.23;;;2.33;;
13331;SDS011;6735;51.456;12.626;2022-07-01T08:25:12;2.83;;;2.30;;
13331;SDS011;6735;51.456;12.626;2022-07-01T08:27:38;2.13;;;2.03;;
13331;SDS011;6735;51.456;12.626;2022-07-01T08:30:04;2.07;;;1.97;;
13331;SDS011;6735;51.456;12.626;2022-07-01T08:32:31;2.20;;;1.80;;
13331;SDS011;6735;51.456;12.626;2022-07-01T08:34:56;1.93;;;1.83;;
13331;SDS011;6735;51.456;12.626;2022-07-01T08:37:22;2.00;;;1.77;;
13331;SDS011;6735;51.456;12.626;2022-07-01T08:39:48;1.97;;;1.80;;
13331;SDS011;6735;51.456;12.626;2022-07-01T08:42:13;3.27;;;1.90;;
13331;SDS011;6735;51.456;12.626;2022-07-01T08:44:39;2.20;;;2.00;;
13331;SDS011;6735;51.456;12.626;2022-07-01T08:47:05;2.83;;;1.90;;
13331;SDS011;6735;51.456;12.626;2022-07-01T08:49:35;4.27;;;1.83;;
13331;SDS011;6735;51.456;12.626;2022-07-01T08:52:01;1.80;;;1.70;;
13331;SDS011;6735;51.456;12.626;2022-07-01T08:54:26;2.23;;;1.90;;
13331;SDS011;6735;51.456;12.626;2022-07-01T08:56:52;2.43;;;2.20;;
13331;SDS011;6735;51.456;12.626;2022-07-01T08:59:21;2.30;;;2.20;;
13331;SDS011;6735;51.456;12.626;2022-07-01T09:01:58;3.20;;;2.57;;
13331;SDS011;6735;51.456;12.626;2022-07-01T09:04:25;2.97;;;2.77;;
13331;SDS011;6735;51.456;12.626;2022-07-01T09:06:52;3.10;;;2.90;;
13331;SDS011;6735;51.456;12.626;2022-07-01T09:09:35;3.40;;;3.10;;
13331;SDS011;6735;51.456;12.626;2022-07-01T09:12:03;3.00;;;2.73;;
13331;SDS011;6735;51.456;12.626;2022-07-01T09:14:30;2.87;;;2.67;;
13331;SDS011;6735;51.456;12.626;2022-07-01T09:16:58;3.17;;;2.80;;
13331;SDS011;6735;51.456;12.626;2022-07-01T09:19:25;3.83;;;3.33;;
13331;SDS011;6735;51.456;12.626;2022-07-01T09:21:56;4.03;;;3.70;;
13331;SDS011;6735;51.456;12.626;2022-07-01T09:24:32;4.57;;;4.00;;
13331;SDS011;6735;51.456;12.626;2022-07-01T09:27:04;4.20;;;3.80;;
13331;SDS011;6735;51.456;12.626;2022-07-01T09:29:42;4.80;;;3.90;;
13331;SDS011;6735;51.456;12.626;2022-07-01T09:32:10;4.63;;;4.23;;
13331;SDS011;6735;51.456;12.626;2022-07-01T09:37:13;4.50;;;3.93;;
13331;SDS011;6735;51.456;12.626;2022-07-01T09:39:43;4.77;;;3.50;;
13331;SDS011;6735;51.456;12.626;2022-07-01T09:42:20;5.23;;;3.20;;
13331;SDS011;6735;51.456;12.626;2022-07-01T09:44:56;5.13;;;3.30;;
13331;SDS011;6735;51.456;12.626;2022-07-01T09:47:31;8.47;;;4.07;;
13331;SDS011;6735;51.456;12.626;2022-07-01T09:49:58;6.10;;;4.03;;
13331;SDS011;6735;51.456;12.626;2022-07-01T09:52:24;8.13;;;4.63;;
13331;SDS011;6735;51.456;12.626;2022-07-01T09:54:51;4.47;;;4.13;;
13331;SDS011;6735;51.456;12.626;2022-07-01T09:57:17;5.73;;;4.30;;
13331;SDS011;6735;51.456;12.626;2022-07-01T09:59:43;5.77;;;4.20;;
13331;SDS011;6735;51.456;12.626;2022-07-01T10:02:10;5.70;;;4.17;;
13331;SDS011;6735;51.456;12.626;2022-07-01T10:04:36;5.13;;;4.07;;
13331;SDS011;6735;51.456;12.626;2022-07-01T10:07:18;4.37;;;3.97;;
13331;SDS011;6735;51.456;12.626;2022-07-01T10:10:21;4.53;;;4.13;;
13331;SDS011;6735;51.456;12.626;2022-07-01T10:12:51;4.97;;;3.30;;
13331;SDS011;6735;51.456;12.626;2022-07-01T10:15:19;4.40;;;3.63;;
13331;SDS011;6735;51.456;12.626;2022-07-01T10:17:47;4.20;;;3.90;;
13331;SDS011;6735;51.456;12.626;2022-07-01T10:20:15;3.93;;;3.63;;
13331;SDS011;6735;51.456;12.626;2022-07-01T10:22:42;4.03;;;3.73;;
13331;SDS011;6735;51.456;12.626;2022-07-01T10:28:12;6.90;;;4.57;;
13331;SDS011;6735;51.456;12.626;2022-07-01T10:30:52;5.10;;;4.60;;
13331;SDS011;6735;51.456;12.626;2022-07-01T10:33:28;6.07;;;5.20;;
13331;SDS011;6735;51.456;12.626;2022-07-01T10:35:53;5.23;;;4.73;;
13331;SDS011;6735;51.456;12.626;2022-07-01T10:38:19;6.57;;;5.20;;
13331;SDS011;6735;51.456;12.626;2022-07-01T10:40:45;5.50;;;5.00;;
13331;SDS011;6735;51.456;12.626;2022-07-01T10:43:17;5.87;;;5.37;;
13331;SDS011;6735;51.456;12.626;2022-07-01T10:45:56;5.73;;;5.23;;
13331;SDS011;6735;51.456;12.626;2022-07-01T10:48:23;5.97;;;5.57;;
13331;SDS011;6735;51.456;12.626;2022-07-01T10:50:49;8.27;;;4.93;;
13331;SDS011;6735;51.456;12.626;2022-07-01T10:53:16;5.80;;;5.40;;
13331;SDS011;6735;51.456;12.626;2022-07-01T10:55:46;6.07;;;5.57;;
13331;SDS011;6735;51.456;12.626;2022-07-01T10:58:13;6.60;;;5.97;;
13331;SDS011;6735;51.456;12.626;2022-07-01T11:00:43;7.20;;;6.50;;
13331;SDS011;6735;51.456;12.626;2022-07-01T11:03:11;6.23;;;5.73;;
13331;SDS011;6735;51.456;12.626;2022-07-01T11:05:39;5.43;;;5.03;;
13331;SDS011;6735;51.456;12.626;2022-07-01T11:08:06;5.67;;;5.17;;
13331;SDS011;6735;51.456;12.626;2022-07-01T11:10:32;4.97;;;4.57;;
13331;SDS011;6735;51.456;12.626;2022-07-01T11:12:58;4.87;;;4.47;;
13331;SDS011;6735;51.456;12.626;2022-07-01T11:15:28;4.87;;;4.57;;
13331;SDS011;6735;51.456;12.626;2022-07-01T11:17:55;4.90;;;4.60;;
13331;SDS011;6735;51.456;12.626;2022-07-01T11:20:22;4.93;;;4.53;;
13331;SDS011;6735;51.456;12.626;2022-07-01T11:22:49;4.70;;;4.40;;
13331;SDS011;6735;51.456;12.626;2022-07-01T11:25:15;4.87;;;4.47;;
13331;SDS011;6735;51.456;12.626;2022-07-01T11:27:46;5.43;;;5.00;;
13331;SDS011;6735;51.456;12.626;2022-07-01T11:30:13;6.00;;;5.60;;
13331;SDS011;6735;51.456;12.626;2022-07-01T11:32:44;6.00;;;5.60;;
13331;SDS011;6735;51.456;12.626;2022-07-01T11:35:23;6.33;;;5.83;;
13331;SDS011;6735;51.456;12.626;2022-07-01T11:38:30;6.47;;;5.97;;
13331;SDS011;6735;51.456;12.626;2022-07-01T11:41:22;6.20;;;5.60;;
13331;SDS011;6735;51.456;12.626;2022-07-01T11:43:50;6.30;;;5.90;;
13331;SDS011;6735;51.456;12.626;2022-07-01T11:46:16;6.57;;;6.00;;
13331;SDS011;6735;51.456;12.626;2022-07-01T11:48:43;6.63;;;6.07;;
13331;SDS011;6735;51.456;12.626;2022-07-01T11:51:20;6.60;;;6.10;;
13331;SDS011;6735;51.456;12.626;2022-07-01T11:53:48;6.20;;;5.70;;
13331;SDS011;6735;51.456;12.626;2022-07-01T11:56:29;5.90;;;5.40;;
13331;SDS011;6735;51.456;12.626;2022-07-01T11:58:56;6.20;;;5.70;;
13331;SDS011;6735;51.456;12.626;2022-07-01T12:01:29;5.83;;;5.33;;
13331;SDS011;6735;51.456;12.626;2022-07-01T12:03:57;5.20;;;4.80;;
13331;SDS011;6735;51.456;12.626;2022-07-01T12:06:25;5.20;;;4.90;;
13331;SDS011;6735;51.456;12.626;2022-07-01T12:08:52;4.90;;;4.50;;
13331;SDS011;6735;51.456;12.626;2022-07-01T12:11:18;4.23;;;4.00;;
13331;SDS011;6735;51.456;12.626;2022-07-01T12:13:46;4.80;;;4.40;;
13331;SDS011;6735;51.456;12.626;2022-07-01T12:16:12;5.03;;;4.63;;
13331;SDS011;6735;51.456;12.626;2022-07-01T12:18:38;5.20;;;4.73;;
13331;SDS011;6735;51.456;12.626;2022-07-01T12:21:04;5.07;;;4.67;;
13331;SDS011;6735;51.456;12.626;2022-07-01T12:23:30;5.67;;;5.17;;
13331;SDS011;6735;51.456;12.626;2022-07-01T12:25:57;5.90;;;5.40;;
13331;SDS011;6735;51.456;12.626;2022-07-01T12:28:36;5.57;;;5.17;;
13331;SDS011;6735;51.456;12.626;2022-07-01T12:31:09;6.57;;;6.07;;
13331;SDS011;6735;51.456;12.626;2022-07-01T12:33:39;6.20;;;5.70;;
13331;SDS011;6735;51.456;12.626;2022-07-01T12:36:13;6.03;;;5.53;;
13331;SDS011;6735;51.456;12.626;2022-07-01T12:38:40;6.17;;;5.77;;
13331;SDS011;6735;51.456;12.626;2022-07-01T12:43:51;4.70;;;4.30;;
13331;SDS011;6735;51.456;12.626;2022-07-01T12:46:29;5.40;;;4.90;;
13331;SDS011;6735;51.456;12.626;2022-07-01T12:48:56;5.17;;;4.87;;
13331;SDS011;6735;51.456;12.626;2022-07-01T12:51:30;5.90;;;5.40;;
13331;SDS011;6735;51.456;12.626;2022-07-01T12:53:56;5.37;;;4.97;;
13331;SDS011;6735;51.456;12.626;2022-07-01T12:56:23;5.87;;;5.27;;
13331;SDS011;6735;51.456;12.626;2022-07-01T12:58:50;7.03;;;5.30;;
13331;SDS011;6735;51.456;12.626;2022-07-01T13:01:17;6.30;;;5.70;;
13331;SDS011;6735;51.456;12.626;2022-07-01T13:03:44;6.77;;;6.17;;
13331;SDS011;6735;51.456;12.626;2022-07-01T13:06:10;7.43;;;6.70;;
13331;SDS011;6735;51.456;12.626;2022-07-01T13:08:35;7.77;;;7.07;;
13331;SDS011;6735;51.456;12.626;2022-07-01T13:11:01;7.20;;;6.70;;
13331;SDS011;6735;51.456;12.626;2022-07-01T13:13:27;7.90;;;7.40;;
13331;SDS011;6735;51.456;12.626;2022-07-01T13:15:52;8.40;;;7.80;;
13331;SDS011;6735;51.456;12.626;2022-07-01T13:18:20;8.13;;;7.43;;
13331;SDS011;6735;51.456;12.626;2022-07-01T13:20:46;8.20;;;7.70;;
13331;SDS011;6735;51.456;12.626;2022-07-01T13:23:12;9.43;;;8.73;;
13331;SDS011;6735;51.456;12.626;2022-07-01T13:25:38;9.47;;;8.77;;
13331;SDS011;6735;51.456;12.626;2022-07-01T13:28:04;9.10;;;8.30;;
13331;SDS011;6735;51.456;12.626;2022-07-01T13:30:30;9.00;;;8.40;;
13331;SDS011;6735;51.456;12.626;2022-07-01T13:32:55;9.50;;;8.73;;
13331;SDS011;6735;51.456;12.626;2022-07-01T13:35:22;9.30;;;8.50;;
13331;SDS011;6735;51.456;12.626;2022-07-01T13:37:48;9.10;;;8.40;;
13331;SDS011;6735;51.456;12.626;2022-07-01T13:40:14;9.13;;;8.43;;
13331;SDS011;6735;51.456;12.626;2022-07-01T13:42:39;8.43;;;7.93;;
13331;SDS011;6735;51.456;12.626;2022-07-01T13:45:06;8.43;;;7.83;;
13331;SDS011;6735;51.456;12.626;2022-07-01T13:47:32;8.93;;;8.13;;
13331;SDS011;6735;51.456;12.626;2022-07-01T13:49:58;10.47;;;8.63;;
13331;SDS011;6735;51.456;12.626;2022-07-01T13:52:23;9.67;;;8.87;;
13331;SDS011;6735;51.456;12.626;2022-07-01T13:54:49;9.63;;;8.93;;
13331;SDS011;6735;51.456;12.626;2022-07-01T13:57:15;10.33;;;9.33;;
13331;SDS011;6735;51.456;12.626;2022-07-01T13:59:41;10.80;;;9.90;;
13331;SDS011;6735;51.456;12.626;2022-07-01T14:02:07;10.63;;;9.73;;
13331;SDS011;6735;51.456;12.626;2022-07-01T14:04:34;10.00;;;9.10;;
13331;SDS011;6735;51.456;12.626;2022-07-01T14:06:59;9.47;;;8.67;;
13331;SDS011;6735;51.456;12.626;2022-07-01T14:09:25;9.30;;;8.60;;
13331;SDS011;6735;51.456;12.626;2022-07-01T14:11:50;9.43;;;8.67;;
13331;SDS011;6735;51.456;12.626;2022-07-01T14:14:15;10.07;;;9.27;;
13331;SDS011;6735;51.456;12.626;2022-07-01T14:16:41;9.90;;;9.10;;
13331;SDS011;6735;51.456;12.626;2022-07-01T14:19:07;10.37;;;8.87;;
13331;SDS011;6735;51.456;12.626;2022-07-01T14:21:32;9.17;;;8.37;;
13331;SDS011;6735;51.456;12.626;2022-07-01T14:23:57;9.87;;;9.00;;
13331;SDS011;6735;51.456;12.626;2022-07-01T14:26:23;9.20;;;8.40;;
13331;SDS011;6735;51.456;12.626;2022-07-01T14:28:49;9.70;;;8.87;;
13331;SDS011;6735;51.456;12.626;2022-07-01T14:31:14;9.70;;;8.67;;
13331;SDS011;6735;51.456;12.626;2022-07-01T14:33:40;10.20;;;9.40;;
13331;SDS011;6735;51.456;12.626;2022-07-01T14:36:06;10.00;;;9.13;;
13331;SDS011;6735;51.456;12.626;2022-07-01T14:38:31;10.07;;;9.17;;
13331;SDS011;6735;51.456;12.626;2022-07-01T14:40:57;9.77;;;9.07;;
13331;SDS011;6735;51.456;12.626;2022-07-01T14:43:22;9.80;;;9.07;;
13331;SDS011;6735;51.456;12.626;2022-07-01T14:45:48;9.30;;;8.50;;